Aviation Digital Data Service (ADDS)

Output produced by METARs form (0428 UTC 19 February 2019)
found at http://www.aviationweather.gov/metar/data/
 
Forecast for: ORMM (BASRAH/MAGAL , IQ)
Text: TAF ORMM 190400Z 1906/2006 30008KT CAVOK
Forecast period: 0600 UTC 19 February 2019 to 0600 UTC 20 February 2019
Forecast type: FROM: standard forecast or significant change
Winds: from the WNW (300 degrees) at 9 MPH (8 knots; 4.1 m/s)
Visibility: 6 or more miles 10+ km)
Ceiling: unknown
Clouds: missing
Weather: NSW  (no significant weather)